createdAt,value
2017-04-14T00:00:03.792Z,835.26
2017-04-14T00:00:07.982Z,835.29
2017-04-14T00:00:12.290Z,835.26
2017-04-14T00:00:16.607Z,835.27
2017-04-14T00:00:21.044Z,835.18
2017-04-14T00:00:25.468Z,835.18
2017-04-14T00:00:29.544Z,835.2
2017-04-14T00:00:33.972Z,835.21
2017-04-14T00:00:38.394Z,835.2
2017-04-14T00:00:42.818Z,835.21
2017-04-14T00:00:47.253Z,835.21
2017-04-14T00:00:51.676Z,835.19
2017-04-14T00:00:56.103Z,835.21
2017-04-14T00:01:00.537Z,835.17
2017-04-14T00:01:04.981Z,835.16
2017-04-14T00:01:09.412Z,835.19
2017-04-14T00:01:13.833Z,835.15
2017-04-14T00:01:18.267Z,835.16
2017-04-14T00:01:22.708Z,835.17
2017-04-14T00:01:27.136Z,835.12
2017-04-14T00:01:31.560Z,835.11
2017-04-14T00:01:35.988Z,835.12
2017-04-14T00:01:40.419Z,835.12
2017-04-14T00:01:44.840Z,835.07
2017-04-14T00:01:49.263Z,835.05
2017-04-14T00:01:53.701Z,835.09
2017-04-14T00:01:58.180Z,835.1
2017-04-14T00:02:02.494Z,835.08
2017-04-14T00:02:06.802Z,835.11
2017-04-14T00:02:11.231Z,835.09
2017-04-14T00:02:15.653Z,835.06
2017-04-14T00:02:20.084Z,835.05
2017-04-14T00:02:24.277Z,835.02
2017-04-14T00:02:28.706Z,835
2017-04-14T00:02:33.135Z,834.99
2017-04-14T00:02:37.570Z,835
2017-04-14T00:02:42.002Z,835.06
2017-04-14T00:02:46.484Z,835.06
2017-04-14T00:02:50.924Z,835.03
2017-04-14T00:02:55.232Z,835.03
2017-04-14T00:02:59.674Z,835.03
2017-04-14T00:03:04.110Z,835.06
2017-04-14T00:03:08.545Z,835.03
2017-04-14T00:03:12.969Z,835.02
2017-04-14T00:03:17.291Z,835.01
2017-04-14T00:03:21.724Z,835
2017-04-14T00:03:26.151Z,835.05
2017-04-14T00:03:30.592Z,835.03
2017-04-14T00:03:35.029Z,834.97
2017-04-14T00:03:39.340Z,835.01
2017-04-14T00:03:43.774Z,834.98
2017-04-14T00:03:48.212Z,834.99
2017-04-14T00:03:52.570Z,834.97
2017-04-14T00:03:57.003Z,834.95
2017-04-14T00:04:01.435Z,834.95
2017-04-14T00:04:05.867Z,834.93
2017-04-14T00:04:10.082Z,834.98
2017-04-14T00:04:14.516Z,834.93
2017-04-14T00:04:18.836Z,834.93
2017-04-14T00:04:23.320Z,834.92
2017-04-14T00:04:27.749Z,834.94
2017-04-14T00:04:32.179Z,834.93
2017-04-14T00:04:36.606Z,834.92
2017-04-14T00:04:40.972Z,834.93
2017-04-14T00:04:45.399Z,834.92
2017-04-14T00:04:49.829Z,834.9
2017-04-14T00:04:54.159Z,834.94
2017-04-14T00:04:58.595Z,834.88
2017-04-14T00:05:03.023Z,834.92
2017-04-14T00:05:07.338Z,834.87
2017-04-14T00:05:11.617Z,834.9
2017-04-14T00:05:16.052Z,834.87
2017-04-14T00:05:20.379Z,834.91
2017-04-14T00:05:24.343Z,834.89
2017-04-14T00:05:28.430Z,834.84
2017-04-14T00:05:32.862Z,834.9
2017-04-14T00:05:37.185Z,834.89
2017-04-14T00:05:41.510Z,834.89
2017-04-14T00:05:45.838Z,834.87
2017-04-14T00:05:50.266Z,834.89
2017-04-14T00:05:54.588Z,834.87
2017-04-14T00:05:59.019Z,834.88
2017-04-14T00:06:03.463Z,834.86
2017-04-14T00:06:07.904Z,834.88
2017-04-14T00:06:12.332Z,834.86
2017-04-14T00:06:16.652Z,834.87
2017-04-14T00:06:21.088Z,834.89
2017-04-14T00:06:25.521Z,834.86
2017-04-14T00:06:29.842Z,834.86
2017-04-14T00:06:34.283Z,834.9
2017-04-14T00:06:38.504Z,834.86
2017-04-14T00:06:42.595Z,834.85
2017-04-14T00:06:46.913Z,834.86
2017-04-14T00:06:51.234Z,834.87
2017-04-14T00:06:55.705Z,834.85
2017-04-14T00:06:59.785Z,834.88
2017-04-14T00:07:04.221Z,834.84
2017-04-14T00:07:08.657Z,834.81
2017-04-14T00:07:13.086Z,834.79
2017-04-14T00:07:17.520Z,834.87
2017-04-14T00:07:21.836Z,834.84
2017-04-14T00:07:26.157Z,834.85
2017-04-14T00:07:30.607Z,834.85
2017-04-14T00:07:34.933Z,834.83
2017-04-14T00:07:39.379Z,834.84
2017-04-14T00:07:43.483Z,834.85
2017-04-14T00:07:47.937Z,834.84
2017-04-14T00:07:52.376Z,834.84
2017-04-14T00:07:56.705Z,834.84
2017-04-14T00:08:01.188Z,834.85
2017-04-14T00:08:05.624Z,834.83
2017-04-14T00:08:09.938Z,834.83
2017-04-14T00:08:14.150Z,834.83
2017-04-14T00:08:18.481Z,834.88
2017-04-14T00:08:22.805Z,834.86
2017-04-14T00:08:27.247Z,834.82
2017-04-14T00:08:31.688Z,834.86
2017-04-14T00:08:36.078Z,834.86
2017-04-14T00:08:40.408Z,834.87
2017-04-14T00:08:44.861Z,834.82
2017-04-14T00:08:49.304Z,834.84
2017-04-14T00:08:53.745Z,834.84
2017-04-14T00:08:58.177Z,834.84
2017-04-14T00:09:02.498Z,834.85
2017-04-14T00:09:06.699Z,834.83
2017-04-14T00:09:11.137Z,834.85
2017-04-14T00:09:15.570Z,834.84
2017-04-14T00:09:19.894Z,834.85
2017-04-14T00:09:24.227Z,834.85
2017-04-14T00:09:28.722Z,834.85
2017-04-14T00:09:33.151Z,834.87
2017-04-14T00:09:37.366Z,834.86
2017-04-14T00:09:41.803Z,834.84
2017-04-14T00:09:46.137Z,834.87
2017-04-14T00:09:50.565Z,834.85
2017-04-14T00:09:55.004Z,834.89
2017-04-14T00:09:59.329Z,834.9
2017-04-14T00:10:03.649Z,834.85
2017-04-14T00:10:08.083Z,834.87
2017-04-14T00:10:12.399Z,834.86
2017-04-14T00:10:16.831Z,834.87
2017-04-14T00:10:21.042Z,834.88
2017-04-14T00:10:25.472Z,834.82
2017-04-14T00:10:29.793Z,834.84
2017-04-14T00:10:34.108Z,834.85
2017-04-14T00:10:38.428Z,834.89
2017-04-14T00:10:42.861Z,834.86
2017-04-14T00:10:47.293Z,834.87
2017-04-14T00:10:51.614Z,834.87
2017-04-14T00:10:56.049Z,834.84
2017-04-14T00:11:00.488Z,834.87
2017-04-14T00:11:04.921Z,834.86
2017-04-14T00:11:09.404Z,834.89
2017-04-14T00:11:13.773Z,834.86
2017-04-14T00:11:18.202Z,834.89
2017-04-14T00:11:22.645Z,834.82
2017-04-14T00:11:27.118Z,834.87
2017-04-14T00:11:31.436Z,834.84
2017-04-14T00:11:35.867Z,834.84
2017-04-14T00:11:40.300Z,834.87
2017-04-14T00:11:44.723Z,834.87
2017-04-14T00:11:49.031Z,834.87
2017-04-14T00:11:53.459Z,834.86
2017-04-14T00:11:57.931Z,834.85
2017-04-14T00:12:02.356Z,834.85
2017-04-14T00:12:06.552Z,834.85
2017-04-14T00:12:10.877Z,834.8
2017-04-14T00:12:15.306Z,834.87
2017-04-14T00:12:19.613Z,834.88
2017-04-14T00:12:23.927Z,834.87
2017-04-14T00:12:28.359Z,834.88
2017-04-14T00:12:32.793Z,834.88
2017-04-14T00:12:37.217Z,834.85
2017-04-14T00:12:41.531Z,834.81
2017-04-14T00:12:45.958Z,834.84
2017-04-14T00:12:50.272Z,834.82
2017-04-14T00:12:54.713Z,834.86
2017-04-14T00:12:59.147Z,834.88
2017-04-14T00:13:03.930Z,834.89
2017-04-14T00:13:08.355Z,834.86
2017-04-14T00:13:12.783Z,834.85
2017-04-14T00:13:17.211Z,834.87
2017-04-14T00:13:21.410Z,834.89
2017-04-14T00:13:25.838Z,834.86
2017-04-14T00:13:30.274Z,834.9
2017-04-14T00:13:34.717Z,834.84
2017-04-14T00:13:39.050Z,834.87
2017-04-14T00:13:43.484Z,834.88
2017-04-14T00:13:47.918Z,834.85
2017-04-14T00:13:52.237Z,834.87
2017-04-14T00:13:56.547Z,834.85
2017-04-14T00:14:00.980Z,834.86
2017-04-14T00:14:05.551Z,834.88
2017-04-14T00:14:10.029Z,834.9
2017-04-14T00:14:14.463Z,834.89
2017-04-14T00:14:18.906Z,834.91
2017-04-14T00:14:23.346Z,834.85
2017-04-14T00:14:27.777Z,834.89
2017-04-14T00:14:32.211Z,834.88
2017-04-14T00:14:36.645Z,834.9
2017-04-14T00:14:41.070Z,834.88
2017-04-14T00:14:45.501Z,834.92
2017-04-14T00:14:49.988Z,834.85
2017-04-14T00:14:54.419Z,834.83
2017-04-14T00:14:58.732Z,834.93
2017-04-14T00:15:03.465Z,834.92
2017-04-14T00:15:07.827Z,834.91
2017-04-14T00:15:12.254Z,834.91
2017-04-14T00:15:16.562Z,834.87
2017-04-14T00:15:20.992Z,834.9
2017-04-14T00:15:25.465Z,834.95
2017-04-14T00:15:29.887Z,834.97
2017-04-14T00:15:34.315Z,834.94
2017-04-14T00:15:38.747Z,834.94
2017-04-14T00:15:43.175Z,834.96
2017-04-14T00:15:47.602Z,834.94
2017-04-14T00:15:52.027Z,834.96
2017-04-14T00:15:56.381Z,834.98
2017-04-14T00:16:00.694Z,834.94
2017-04-14T00:16:05.124Z,834.96
2017-04-14T00:16:09.554Z,834.95
2017-04-14T00:16:14.031Z,834.97
2017-04-14T00:16:18.458Z,834.98
2017-04-14T00:16:22.880Z,834.99
2017-04-14T00:16:27.205Z,834.94
2017-04-14T00:16:31.632Z,834.95
2017-04-14T00:16:36.066Z,834.91
2017-04-14T00:16:40.377Z,834.92
2017-04-14T00:16:44.808Z,834.93
2017-04-14T00:16:49.242Z,834.97
2017-04-14T00:16:53.322Z,834.96
2017-04-14T00:16:57.747Z,834.98
2017-04-14T00:17:02.329Z,834.97
2017-04-14T00:17:06.753Z,834.98
2017-04-14T00:17:11.174Z,834.98
2017-04-14T00:17:15.598Z,834.96
2017-04-14T00:17:20.043Z,834.99
2017-04-14T00:17:24.477Z,835
2017-04-14T00:17:28.680Z,835.01
2017-04-14T00:17:33.117Z,834.97
2017-04-14T00:17:37.569Z,834.99
2017-04-14T00:17:41.998Z,835
2017-04-14T00:17:46.316Z,834.96
2017-04-14T00:17:50.756Z,835
2017-04-14T00:17:54.771Z,835
2017-04-14T00:17:59.204Z,835.01
2017-04-14T00:18:03.830Z,835.01
2017-04-14T00:18:08.260Z,834.99
2017-04-14T00:18:12.576Z,834.99
2017-04-14T00:18:17.004Z,834.95
2017-04-14T00:18:21.429Z,834.94
2017-04-14T00:18:25.864Z,834.97
2017-04-14T00:18:30.300Z,835.01
2017-04-14T00:18:34.735Z,835.01
2017-04-14T00:18:39.171Z,835.02
2017-04-14T00:18:43.603Z,835
2017-04-14T00:18:48.040Z,835.01
2017-04-14T00:18:52.356Z,835.03
2017-04-14T00:18:56.676Z,834.99
2017-04-14T00:19:01.120Z,835.01
2017-04-14T00:19:05.550Z,835.01
2017-04-14T00:19:09.986Z,835.03
2017-04-14T00:19:14.412Z,835.02
2017-04-14T00:19:18.899Z,835.01
2017-04-14T00:19:23.100Z,835.01
2017-04-14T00:19:27.529Z,835.01
2017-04-14T00:19:31.966Z,835.01
2017-04-14T00:19:36.391Z,834.97
2017-04-14T00:19:40.815Z,835.01
2017-04-14T00:19:45.250Z,835.03
2017-04-14T00:19:49.447Z,835
2017-04-14T00:19:53.761Z,835.01
2017-04-14T00:19:58.192Z,835.01
2017-04-14T00:20:02.632Z,834.94
2017-04-14T00:20:06.946Z,834.99
2017-04-14T00:20:11.379Z,835
2017-04-14T00:20:15.804Z,835.02
2017-04-14T00:20:20.233Z,835.03
2017-04-14T00:20:24.485Z,835.03
2017-04-14T00:20:28.911Z,834.99
2017-04-14T00:20:33.216Z,834.99
2017-04-14T00:20:37.653Z,834.99
2017-04-14T00:20:41.969Z,834.98
2017-04-14T00:20:46.282Z,835.01
2017-04-14T00:20:50.709Z,835.01
2017-04-14T00:20:55.145Z,835.01
2017-04-14T00:20:59.575Z,835.03
2017-04-14T00:21:04.012Z,834.96
2017-04-14T00:21:08.441Z,834.99
2017-04-14T00:21:12.870Z,835
2017-04-14T00:21:17.343Z,835.03
2017-04-14T00:21:21.535Z,835.02
2017-04-14T00:21:25.966Z,834.99
2017-04-14T00:21:30.398Z,834.97
2017-04-14T00:21:34.823Z,834.98
2017-04-14T00:21:39.253Z,834.97
2017-04-14T00:21:43.678Z,835.01
2017-04-14T00:21:48.103Z,835.03
2017-04-14T00:21:52.292Z,835.02
2017-04-14T00:21:56.726Z,835.01
2017-04-14T00:22:01.153Z,835.06
2017-04-14T00:22:05.448Z,835.04
2017-04-14T00:22:09.758Z,835.02
2017-04-14T00:22:14.189Z,835.03
2017-04-14T00:22:18.615Z,834.99
2017-04-14T00:22:22.806Z,834.98
2017-04-14T00:22:27.115Z,835.04
2017-04-14T00:22:31.542Z,835.03
2017-04-14T00:22:35.847Z,835
2017-04-14T00:22:40.049Z,835.02
2017-04-14T00:22:44.471Z,835.03
2017-04-14T00:22:48.777Z,835.03
2017-04-14T00:22:53.085Z,835.03
2017-04-14T00:22:57.515Z,835.05
2017-04-14T00:23:02.047Z,835.03
2017-04-14T00:23:06.478Z,835.07
2017-04-14T00:23:10.917Z,835.03
2017-04-14T00:23:15.353Z,835.02
2017-04-14T00:23:19.781Z,835.05
2017-04-14T00:23:24.212Z,835.07
2017-04-14T00:23:28.540Z,835.02
2017-04-14T00:23:32.733Z,835.05
2017-04-14T00:23:37.043Z,835.03
2017-04-14T00:23:41.360Z,835.03
2017-04-14T00:23:45.809Z,835.07
2017-04-14T00:23:50.237Z,835.02
2017-04-14T00:23:54.440Z,834.99
2017-04-14T00:23:58.875Z,835.03
2017-04-14T00:24:03.310Z,835.04
2017-04-14T00:24:07.503Z,834.99
2017-04-14T00:24:11.820Z,835.04
2017-04-14T00:24:16.132Z,835.06
2017-04-14T00:24:20.579Z,835.03
2017-04-14T00:24:25.005Z,835.06
2017-04-14T00:24:29.202Z,835.01
2017-04-14T00:24:33.638Z,835.07
2017-04-14T00:24:38.072Z,835.05
2017-04-14T00:24:42.379Z,835.08
2017-04-14T00:24:46.804Z,835.09
2017-04-14T00:24:51.233Z,835.1
2017-04-14T00:24:55.657Z,835.09
2017-04-14T00:25:00.090Z,835.09
2017-04-14T00:25:04.646Z,835.07
2017-04-14T00:25:09.076Z,835.06
2017-04-14T00:25:13.501Z,835.08
2017-04-14T00:25:17.924Z,835.07
2017-04-14T00:25:22.348Z,835.1
2017-04-14T00:25:26.785Z,835.11
2017-04-14T00:25:30.972Z,835.07
2017-04-14T00:25:35.411Z,835.11
2017-04-14T00:25:39.853Z,835.12
2017-04-14T00:25:44.283Z,835.05
2017-04-14T00:25:48.706Z,835.11
2017-04-14T00:25:53.130Z,835.12
2017-04-14T00:25:57.435Z,835.11
2017-04-14T00:26:02.022Z,835.15
2017-04-14T00:26:06.443Z,835.13
2017-04-14T00:26:10.869Z,835.05
2017-04-14T00:26:15.299Z,835.1
2017-04-14T00:26:19.771Z,835.15
2017-04-14T00:26:24.078Z,835.15
2017-04-14T00:26:28.282Z,835.14
2017-04-14T00:26:32.601Z,835.15
2017-04-14T00:26:37.024Z,835.12
2017-04-14T00:26:41.334Z,835.15
2017-04-14T00:26:45.759Z,835.22
2017-04-14T00:26:50.183Z,835.2
2017-04-14T00:26:54.613Z,835.19
2017-04-14T00:26:59.047Z,835.21
2017-04-14T00:27:03.830Z,835.22
2017-04-14T00:27:08.139Z,835.18
2017-04-14T00:27:12.563Z,835.22
2017-04-14T00:27:16.998Z,835.22
2017-04-14T00:27:21.428Z,835.24
2017-04-14T00:27:25.852Z,835.22
2017-04-14T00:27:30.169Z,835.17
2017-04-14T00:27:34.489Z,835.17
2017-04-14T00:27:38.800Z,835.2
2017-04-14T00:27:43.236Z,835.19
2017-04-14T00:27:47.666Z,835.22
2017-04-14T00:27:51.877Z,835.18
2017-04-14T00:27:56.309Z,835.21
2017-04-14T00:28:00.737Z,835.26
2017-04-14T00:28:05.180Z,835.28
2017-04-14T00:28:09.622Z,835.28
2017-04-14T00:28:14.050Z,835.29
2017-04-14T00:28:18.482Z,835.28
2017-04-14T00:28:22.923Z,835.29
2017-04-14T00:28:27.402Z,835.31
2017-04-14T00:28:31.718Z,835.3
2017-04-14T00:28:36.149Z,835.32
2017-04-14T00:28:40.583Z,835.32
2017-04-14T00:28:45.019Z,835.34
2017-04-14T00:28:49.449Z,835.39
2017-04-14T00:28:53.760Z,835.29
2017-04-14T00:28:58.195Z,835.33
2017-04-14T00:29:02.783Z,835.36
2017-04-14T00:29:07.211Z,835.39
2017-04-14T00:29:11.655Z,835.4
2017-04-14T00:29:15.979Z,835.33
2017-04-14T00:29:20.310Z,835.32
2017-04-14T00:29:24.752Z,835.38
2017-04-14T00:29:29.183Z,835.37
2017-04-14T00:29:33.623Z,835.41
2017-04-14T00:29:38.053Z,835.42
2017-04-14T00:29:42.482Z,835.38
2017-04-14T00:29:46.795Z,835.39
2017-04-14T00:29:51.224Z,835.42
2017-04-14T00:29:55.661Z,835.4
2017-04-14T00:30:00.091Z,835.43
2017-04-14T00:30:04.617Z,835.41
2017-04-14T00:30:08.808Z,835.42
2017-04-14T00:30:13.235Z,835.45
2017-04-14T00:30:17.428Z,835.45
2017-04-14T00:30:21.908Z,835.44
2017-04-14T00:30:26.338Z,835.41
2017-04-14T00:30:30.765Z,835.42
2017-04-14T00:30:35.192Z,835.46
2017-04-14T00:30:39.504Z,835.47
2017-04-14T00:30:43.818Z,835.47
2017-04-14T00:30:48.244Z,835.47
2017-04-14T00:30:52.684Z,835.51
2017-04-14T00:30:57.162Z,835.48
2017-04-14T00:31:01.593Z,835.48
2017-04-14T00:31:06.022Z,835.5
2017-04-14T00:31:10.501Z,835.54
2017-04-14T00:31:14.922Z,835.49
2017-04-14T00:31:19.350Z,835.49
2017-04-14T00:31:23.775Z,835.49
2017-04-14T00:31:28.212Z,835.5
2017-04-14T00:31:32.635Z,835.54
2017-04-14T00:31:37.059Z,835.55
2017-04-14T00:31:41.528Z,835.55
2017-04-14T00:31:45.834Z,835.53
2017-04-14T00:31:50.260Z,835.5
2017-04-14T00:31:54.692Z,835.55
2017-04-14T00:31:59.119Z,835.56
2017-04-14T00:32:03.543Z,835.56
2017-04-14T00:32:07.848Z,835.58
2017-04-14T00:32:12.037Z,835.56
2017-04-14T00:32:16.344Z,835.58
2017-04-14T00:32:20.772Z,835.56
2017-04-14T00:32:25.089Z,835.56
2017-04-14T00:32:29.527Z,835.57
2017-04-14T00:32:33.836Z,835.56
2017-04-14T00:32:38.267Z,835.58
2017-04-14T00:32:42.582Z,835.57
2017-04-14T00:32:47.075Z,835.63
2017-04-14T00:32:51.387Z,835.6
2017-04-14T00:32:55.824Z,835.61
2017-04-14T00:33:00.264Z,835.6
2017-04-14T00:33:04.999Z,835.61
2017-04-14T00:33:09.420Z,835.58
2017-04-14T00:33:13.733Z,835.61
2017-04-14T00:33:18.173Z,835.59
2017-04-14T00:33:22.612Z,835.63
2017-04-14T00:33:27.049Z,835.6
2017-04-14T00:33:31.478Z,835.56
2017-04-14T00:33:35.910Z,835.64
2017-04-14T00:33:40.230Z,835.63
2017-04-14T00:33:44.667Z,835.59
2017-04-14T00:33:49.105Z,835.56
2017-04-14T00:33:53.419Z,835.62
2017-04-14T00:33:57.846Z,835.63
2017-04-14T00:34:02.460Z,835.64
2017-04-14T00:34:06.781Z,835.64
2017-04-14T00:34:11.098Z,835.63
2017-04-14T00:34:15.408Z,835.61
2017-04-14T00:34:19.841Z,835.63
2017-04-14T00:34:24.269Z,835.63
2017-04-14T00:34:28.714Z,835.63
2017-04-14T00:34:33.141Z,835.62
2017-04-14T00:34:37.582Z,835.61
2017-04-14T00:34:41.899Z,835.62
2017-04-14T00:34:46.329Z,835.57
2017-04-14T00:34:50.759Z,835.61
2017-04-14T00:34:55.203Z,835.61
2017-04-14T00:34:59.639Z,835.61
2017-04-14T00:35:04.071Z,835.58
2017-04-14T00:35:08.395Z,835.62
2017-04-14T00:35:12.745Z,835.56
2017-04-14T00:35:17.171Z,835.62
2017-04-14T00:35:21.603Z,835.63
2017-04-14T00:35:26.044Z,835.63
2017-04-14T00:35:30.240Z,835.62
2017-04-14T00:35:34.665Z,835.64
2017-04-14T00:35:39.095Z,835.65
2017-04-14T00:35:43.409Z,835.59
2017-04-14T00:35:47.842Z,835.63
2017-04-14T00:35:52.267Z,835.64
2017-04-14T00:35:56.691Z,835.66
2017-04-14T00:36:01.123Z,835.62
2017-04-14T00:36:05.557Z,835.6
2017-04-14T00:36:09.982Z,835.64
2017-04-14T00:36:14.418Z,835.64
2017-04-14T00:36:18.847Z,835.64
2017-04-14T00:36:23.275Z,835.65
2017-04-14T00:36:27.706Z,835.66
2017-04-14T00:36:32.176Z,835.62
2017-04-14T00:36:36.598Z,835.64
2017-04-14T00:36:40.908Z,835.62
2017-04-14T00:36:45.221Z,835.66
2017-04-14T00:36:49.530Z,835.65
2017-04-14T00:36:53.836Z,835.65
2017-04-14T00:36:58.264Z,835.65
2017-04-14T00:37:02.715Z,835.67
2017-04-14T00:37:07.146Z,835.62
2017-04-14T00:37:11.570Z,835.64
2017-04-14T00:37:16.000Z,835.64
2017-04-14T00:37:20.441Z,835.64
2017-04-14T00:37:24.871Z,835.66
2017-04-14T00:37:29.298Z,835.63
2017-04-14T00:37:33.727Z,835.66
2017-04-14T00:37:38.189Z,835.63
2017-04-14T00:37:42.506Z,835.68
2017-04-14T00:37:46.935Z,835.68
2017-04-14T00:37:51.367Z,835.67
2017-04-14T00:37:55.860Z,835.67
2017-04-14T00:38:00.177Z,835.62
2017-04-14T00:38:04.491Z,835.61
2017-04-14T00:38:08.925Z,835.69
2017-04-14T00:38:13.354Z,835.66
2017-04-14T00:38:17.663Z,835.71
2017-04-14T00:38:22.090Z,835.68
2017-04-14T00:38:26.455Z,835.64
2017-04-14T00:38:30.892Z,835.67
2017-04-14T00:38:35.316Z,835.62
2017-04-14T00:38:39.644Z,835.64
2017-04-14T00:38:44.075Z,835.68
2017-04-14T00:38:48.498Z,835.7
2017-04-14T00:38:52.931Z,835.69
2017-04-14T00:38:57.367Z,835.73
2017-04-14T00:39:01.562Z,835.69
2017-04-14T00:39:06.018Z,835.68
2017-04-14T00:39:10.453Z,835.66
2017-04-14T00:39:14.898Z,835.66
2017-04-14T00:39:19.329Z,835.7
2017-04-14T00:39:23.778Z,835.71
2017-04-14T00:39:28.213Z,835.71
2017-04-14T00:39:32.649Z,835.69
2017-04-14T00:39:37.073Z,835.67
2017-04-14T00:39:41.499Z,835.69
2017-04-14T00:39:45.936Z,835.68
2017-04-14T00:39:50.369Z,835.73
2017-04-14T00:39:54.799Z,835.74
2017-04-14T00:39:59.234Z,835.75
2017-04-14T00:40:03.426Z,835.77
2017-04-14T00:40:07.740Z,835.75
2017-04-14T00:40:12.163Z,835.75
2017-04-14T00:40:16.588Z,835.76
2017-04-14T00:40:20.945Z,835.76
2017-04-14T00:40:25.370Z,835.75
2017-04-14T00:40:29.789Z,835.73
2017-04-14T00:40:34.216Z,835.74
2017-04-14T00:40:38.653Z,835.76
2017-04-14T00:40:43.078Z,835.76
2017-04-14T00:40:47.508Z,835.77
2017-04-14T00:40:51.943Z,835.79
2017-04-14T00:40:56.373Z,835.78
2017-04-14T00:41:00.678Z,835.77
2017-04-14T00:41:04.989Z,835.81
2017-04-14T00:41:09.426Z,835.78
2017-04-14T00:41:13.898Z,835.81
2017-04-14T00:41:18.326Z,835.82
2017-04-14T00:41:22.641Z,835.8
2017-04-14T00:41:27.075Z,835.83
2017-04-14T00:41:31.503Z,835.84
2017-04-14T00:41:35.814Z,835.83
2017-04-14T00:41:40.240Z,835.88
2017-04-14T00:41:44.550Z,835.84
2017-04-14T00:41:48.984Z,835.82
2017-04-14T00:41:53.419Z,835.84
2017-04-14T00:41:57.730Z,835.85
2017-04-14T00:42:02.164Z,835.84
2017-04-14T00:42:06.362Z,835.87
2017-04-14T00:42:10.790Z,835.87
2017-04-14T00:42:15.105Z,835.88
2017-04-14T00:42:19.542Z,835.87
2017-04-14T00:42:23.848Z,835.9
2017-04-14T00:42:28.273Z,835.87
2017-04-14T00:42:32.703Z,835.9
2017-04-14T00:42:37.027Z,835.92
2017-04-14T00:42:41.468Z,835.87
2017-04-14T00:42:45.901Z,835.9
2017-04-14T00:42:50.339Z,835.92
2017-04-14T00:42:54.776Z,835.9
2017-04-14T00:42:59.219Z,835.91
2017-04-14T00:43:03.956Z,835.95
2017-04-14T00:43:08.392Z,835.93
2017-04-14T00:43:12.825Z,835.92
2017-04-14T00:43:17.252Z,835.94
2017-04-14T00:43:21.685Z,835.94
2017-04-14T00:43:26.114Z,835.93
2017-04-14T00:43:30.553Z,835.93
2017-04-14T00:43:34.872Z,835.87
2017-04-14T00:43:39.303Z,835.93
2017-04-14T00:43:43.748Z,835.94
2017-04-14T00:43:48.181Z,835.94
2017-04-14T00:43:52.612Z,835.98
2017-04-14T00:43:56.924Z,835.96
2017-04-14T00:44:01.356Z,835.96
2017-04-14T00:44:05.837Z,835.92
2017-04-14T00:44:10.040Z,835.93
2017-04-14T00:44:14.467Z,835.94
2017-04-14T00:44:18.923Z,835.93
2017-04-14T00:44:23.192Z,835.96
2017-04-14T00:44:27.622Z,835.97
2017-04-14T00:44:32.054Z,835.97
2017-04-14T00:44:36.488Z,835.98
2017-04-14T00:44:40.919Z,835.97
2017-04-14T00:44:45.228Z,835.97
2017-04-14T00:44:49.662Z,835.95
2017-04-14T00:44:53.736Z,835.98
2017-04-14T00:44:58.165Z,835.96
2017-04-14T00:45:02.841Z,835.98
2017-04-14T00:45:07.151Z,835.97
2017-04-14T00:45:11.622Z,835.96
2017-04-14T00:45:16.051Z,835.96
2017-04-14T00:45:20.477Z,836
2017-04-14T00:45:24.912Z,836.03
2017-04-14T00:45:29.345Z,836
2017-04-14T00:45:33.775Z,836.02
2017-04-14T00:45:38.198Z,835.98
2017-04-14T00:45:42.644Z,835.95
2017-04-14T00:45:46.950Z,835.93
2017-04-14T00:45:51.269Z,836.01
2017-04-14T00:45:55.577Z,836
2017-04-14T00:46:00.014Z,835.98
2017-04-14T00:46:04.442Z,836.01
2017-04-14T00:46:08.635Z,835.99
2017-04-14T00:46:13.058Z,835.99
2017-04-14T00:46:17.489Z,836.01
2017-04-14T00:46:21.920Z,836
2017-04-14T00:46:26.347Z,835.98
2017-04-14T00:46:30.773Z,836.02
2017-04-14T00:46:35.208Z,836.02
2017-04-14T00:46:39.629Z,836.02
2017-04-14T00:46:43.931Z,836.01
2017-04-14T00:46:48.252Z,836.05
2017-04-14T00:46:52.601Z,836.03
2017-04-14T00:46:57.022Z,836.01
2017-04-14T00:47:01.326Z,836.04
2017-04-14T00:47:05.806Z,836.03
2017-04-14T00:47:10.133Z,835.99
2017-04-14T00:47:14.560Z,836.03
2017-04-14T00:47:18.996Z,836.01
2017-04-14T00:47:23.311Z,836.03
2017-04-14T00:47:27.743Z,836.03
2017-04-14T00:47:32.166Z,836.03
2017-04-14T00:47:36.598Z,836.06
2017-04-14T00:47:41.045Z,836.01
2017-04-14T00:47:45.360Z,836.03
2017-04-14T00:47:49.793Z,836.03
2017-04-14T00:47:54.110Z,836.04
2017-04-14T00:47:58.549Z,836.09
2017-04-14T00:48:02.978Z,836.07
2017-04-14T00:48:07.289Z,836.09
2017-04-14T00:48:11.726Z,836.02
2017-04-14T00:48:16.155Z,836.06
2017-04-14T00:48:20.582Z,836.1
2017-04-14T00:48:25.012Z,836.09
2017-04-14T00:48:29.435Z,836.11
2017-04-14T00:48:33.879Z,836.09
2017-04-14T00:48:38.320Z,836.08
2017-04-14T00:48:42.640Z,836.09
2017-04-14T00:48:47.070Z,836.13
2017-04-14T00:48:51.531Z,836.09
2017-04-14T00:48:55.961Z,836.1
2017-04-14T00:49:00.390Z,836.13
2017-04-14T00:49:04.712Z,836.12
2017-04-14T00:49:09.146Z,836.1
2017-04-14T00:49:13.576Z,836.12
2017-04-14T00:49:18.008Z,836.1
2017-04-14T00:49:22.453Z,836.12
2017-04-14T00:49:26.888Z,836.11
2017-04-14T00:49:31.309Z,836.09
2017-04-14T00:49:35.506Z,836.1
2017-04-14T00:49:39.936Z,836.16
2017-04-14T00:49:44.361Z,836.14
2017-04-14T00:49:48.789Z,836.15
2017-04-14T00:49:53.218Z,836.14
2017-04-14T00:49:57.687Z,836.15
2017-04-14T00:50:02.003Z,836.16
2017-04-14T00:50:06.314Z,836.13
2017-04-14T00:50:10.628Z,836.17
2017-04-14T00:50:15.053Z,836.15
2017-04-14T00:50:19.477Z,836.19
2017-04-14T00:50:23.781Z,836.16
2017-04-14T00:50:28.212Z,836.18
2017-04-14T00:50:32.638Z,836.15
2017-04-14T00:50:37.067Z,836.16
2017-04-14T00:50:41.373Z,836.15
2017-04-14T00:50:45.814Z,836.17
2017-04-14T00:50:50.128Z,836.18
2017-04-14T00:50:54.318Z,836.17
2017-04-14T00:50:58.739Z,836.18
2017-04-14T00:51:03.096Z,836.17
2017-04-14T00:51:07.529Z,836.14
2017-04-14T00:51:11.948Z,836.16
2017-04-14T00:51:16.370Z,836.14
2017-04-14T00:51:20.840Z,836.2
2017-04-14T00:51:25.276Z,836.21
2017-04-14T00:51:29.588Z,836.19
2017-04-14T00:51:34.020Z,836.19
2017-04-14T00:51:38.454Z,836.22
2017-04-14T00:51:42.879Z,836.22
2017-04-14T00:51:47.305Z,836.23
2017-04-14T00:51:51.623Z,836.22
2017-04-14T00:51:55.938Z,836.22
2017-04-14T00:52:00.365Z,836.23
2017-04-14T00:52:04.681Z,836.25
2017-04-14T00:52:09.009Z,836.25
2017-04-14T00:52:13.436Z,836.23
2017-04-14T00:52:17.867Z,836.27
2017-04-14T00:52:22.304Z,836.22
2017-04-14T00:52:26.739Z,836.24
2017-04-14T00:52:31.172Z,836.24
2017-04-14T00:52:35.608Z,836.25
2017-04-14T00:52:40.052Z,836.27
2017-04-14T00:52:44.487Z,836.24
2017-04-14T00:52:48.914Z,836.25
2017-04-14T00:52:53.345Z,836.27
2017-04-14T00:52:57.541Z,836.21
2017-04-14T00:53:01.974Z,836.26
2017-04-14T00:53:06.444Z,836.27
2017-04-14T00:53:10.880Z,836.29
2017-04-14T00:53:15.306Z,836.28
2017-04-14T00:53:19.749Z,836.29
2017-04-14T00:53:24.066Z,836.25
2017-04-14T00:53:28.271Z,836.27
2017-04-14T00:53:32.697Z,836.23
2017-04-14T00:53:37.124Z,836.26
2017-04-14T00:53:41.553Z,836.3
2017-04-14T00:53:45.996Z,836.28
2017-04-14T00:53:50.313Z,836.23
2017-04-14T00:53:54.625Z,836.25
2017-04-14T00:53:59.053Z,836.28
2017-04-14T00:54:03.668Z,836.31
2017-04-14T00:54:07.870Z,836.32
2017-04-14T00:54:12.303Z,836.36
2017-04-14T00:54:16.728Z,836.32
2017-04-14T00:54:21.049Z,836.3
2017-04-14T00:54:25.129Z,836.35
2017-04-14T00:54:29.568Z,836.33
2017-04-14T00:54:33.870Z,836.34
2017-04-14T00:54:38.303Z,836.33
2017-04-14T00:54:42.738Z,836.34
2017-04-14T00:54:47.167Z,836.3
2017-04-14T00:54:51.599Z,836.34
2017-04-14T00:54:55.921Z,836.33
2017-04-14T00:55:00.365Z,836.34
2017-04-14T00:55:04.895Z,836.35